sensor_id;sensor_type;location;lat;lon;timestamp;temperature;humidity
7498;DHT22;3790;48.806;9.140;2022-09-09T00:05:14;16.30;99.90
7498;DHT22;3790;48.806;9.140;2022-09-09T00:10:29;16.30;99.90
7498;DHT22;3790;48.806;9.140;2022-09-09T00:15:49;16.30;99.90
7498;DHT22;3790;48.806;9.140;2022-09-09T00:21:06;16.30;99.90
7498;DHT22;3790;48.806;9.140;2022-09-09T00:31:23;16.30;99.90
7498;DHT22;3790;48.806;9.140;2022-09-09T00:36:27;16.40;99.90
7498;DHT22;3790;48.806;9.140;2022-09-09T00:41:47;16.50;99.90
7498;DHT22;3790;48.806;9.140;2022-09-09T00:47:04;16.60;99.90
7498;DHT22;3790;48.806;9.140;2022-09-09T00:52:39;16.70;99.90
7498;DHT22;3790;48.806;9.140;2022-09-09T00:57:41;16.80;99.90
7498;DHT22;3790;48.806;9.140;2022-09-09T01:02:46;16.90;99.90
7498;DHT22;3790;48.806;9.140;2022-09-09T01:07:51;17.00;99.90
7498;DHT22;3790;48.806;9.140;2022-09-09T01:12:52;17.10;99.90
7498;DHT22;3790;48.806;9.140;2022-09-09T01:18:10;17.10;99.90
7498;DHT22;3790;48.806;9.140;2022-09-09T01:28:16;16.90;99.90
7498;DHT22;3790;48.806;9.140;2022-09-09T01:33:20;16.70;99.90
7498;DHT22;3790;48.806;9.140;2022-09-09T01:38:22;16.60;99.90
7498;DHT22;3790;48.806;9.140;2022-09-09T01:43:25;16.50;99.90
7498;DHT22;3790;48.806;9.140;2022-09-09T01:48:27;16.50;99.90
7498;DHT22;3790;48.806;9.140;2022-09-09T01:53:27;16.40;99.90
7498;DHT22;3790;48.806;9.140;2022-09-09T01:58:40;16.40;99.90
7498;DHT22;3790;48.806;9.140;2022-09-09T02:03:52;16.40;99.90
7498;DHT22;3790;48.806;9.140;2022-09-09T02:08:55;16.40;99.90
7498;DHT22;3790;48.806;9.140;2022-09-09T02:14:01;16.50;99.90
7498;DHT22;3790;48.806;9.140;2022-09-09T02:24:05;16.50;99.90
7498;DHT22;3790;48.806;9.140;2022-09-09T02:29:14;16.40;99.90
7498;DHT22;3790;48.806;9.140;2022-09-09T02:34:18;16.20;99.90
7498;DHT22;3790;48.806;9.140;2022-09-09T02:39:20;16.00;99.90
7498;DHT22;3790;48.806;9.140;2022-09-09T02:44:21;15.90;99.90
7498;DHT22;3790;48.806;9.140;2022-09-09T02:54:38;15.70;99.90
7498;DHT22;3790;48.806;9.140;2022-09-09T02:59:39;15.60;99.90
7498;DHT22;3790;48.806;9.140;2022-09-09T03:04:40;15.60;99.90
7498;DHT22;3790;48.806;9.140;2022-09-09T03:09:44;15.50;99.90
7498;DHT22;3790;48.806;9.140;2022-09-09T03:14:44;15.40;99.90
7498;DHT22;3790;48.806;9.140;2022-09-09T03:19:46;15.40;99.90
7498;DHT22;3790;48.806;9.140;2022-09-09T03:24:46;15.40;99.90
7498;DHT22;3790;48.806;9.140;2022-09-09T03:29:47;15.40;99.90
7498;DHT22;3790;48.806;9.140;2022-09-09T03:34:52;15.30;99.90
7498;DHT22;3790;48.806;9.140;2022-09-09T03:39:52;15.20;99.90
7498;DHT22;3790;48.806;9.140;2022-09-09T03:44:54;15.00;99.90
7498;DHT22;3790;48.806;9.140;2022-09-09T03:49:55;14.90;99.90
7498;DHT22;3790;48.806;9.140;2022-09-09T03:54:55;15.10;99.90
7498;DHT22;3790;48.806;9.140;2022-09-09T03:59:57;15.30;99.90
7498;DHT22;3790;48.806;9.140;2022-09-09T04:04:58;15.50;99.90
7498;DHT22;3790;48.806;9.140;2022-09-09T04:09:59;15.80;99.90
7498;DHT22;3790;48.806;9.140;2022-09-09T04:15:00;16.00;99.90
7498;DHT22;3790;48.806;9.140;2022-09-09T04:20:02;16.20;99.90
7498;DHT22;3790;48.806;9.140;2022-09-09T04:25:03;16.30;99.90
7498;DHT22;3790;48.806;9.140;2022-09-09T04:30:04;16.20;99.90
7498;DHT22;3790;48.806;9.140;2022-09-09T04:35:05;16.20;99.90
7498;DHT22;3790;48.806;9.140;2022-09-09T04:40:06;16.20;99.90
7498;DHT22;3790;48.806;9.140;2022-09-09T04:45:09;16.20;99.90
7498;DHT22;3790;48.806;9.140;2022-09-09T04:50:11;16.00;99.90
7498;DHT22;3790;48.806;9.140;2022-09-09T04:55:12;15.90;99.90
7498;DHT22;3790;48.806;9.140;2022-09-09T05:00:13;15.80;99.90
7498;DHT22;3790;48.806;9.140;2022-09-09T05:05:14;15.70;99.90
7498;DHT22;3790;48.806;9.140;2022-09-09T05:10:15;15.60;99.90
7498;DHT22;3790;48.806;9.140;2022-09-09T05:15:16;15.70;99.90
7498;DHT22;3790;48.806;9.140;2022-09-09T05:20:17;15.80;99.90
7498;DHT22;3790;48.806;9.140;2022-09-09T05:25:17;16.00;99.90
7498;DHT22;3790;48.806;9.140;2022-09-09T05:30:19;16.10;99.90
7498;DHT22;3790;48.806;9.140;2022-09-09T05:35:19;16.30;99.90
7498;DHT22;3790;48.806;9.140;2022-09-09T05:40:20;16.50;99.90
7498;DHT22;3790;48.806;9.140;2022-09-09T05:45:21;16.50;99.90
7498;DHT22;3790;48.806;9.140;2022-09-09T05:50:22;16.60;99.90
7498;DHT22;3790;48.806;9.140;2022-09-09T05:55:22;16.60;99.90
7498;DHT22;3790;48.806;9.140;2022-09-09T06:00:23;16.80;99.90
7498;DHT22;3790;48.806;9.140;2022-09-09T06:05:23;17.00;99.90
7498;DHT22;3790;48.806;9.140;2022-09-09T06:10:25;17.00;99.90
7498;DHT22;3790;48.806;9.140;2022-09-09T06:15:26;17.10;99.90
7498;DHT22;3790;48.806;9.140;2022-09-09T06:20:27;17.40;99.90
7498;DHT22;3790;48.806;9.140;2022-09-09T06:25:30;17.60;99.90
7498;DHT22;3790;48.806;9.140;2022-09-09T06:30:31;17.70;99.90
7498;DHT22;3790;48.806;9.140;2022-09-09T06:35:32;17.70;99.90
7498;DHT22;3790;48.806;9.140;2022-09-09T06:40:32;17.60;99.90
7498;DHT22;3790;48.806;9.140;2022-09-09T06:45:32;17.50;99.90
7498;DHT22;3790;48.806;9.140;2022-09-09T06:50:33;17.40;99.90
7498;DHT22;3790;48.806;9.140;2022-09-09T06:55:33;17.40;99.90
7498;DHT22;3790;48.806;9.140;2022-09-09T07:00:35;17.40;99.90
7498;DHT22;3790;48.806;9.140;2022-09-09T07:05:38;17.80;99.90
7498;DHT22;3790;48.806;9.140;2022-09-09T07:10:38;18.00;99.90
7498;DHT22;3790;48.806;9.140;2022-09-09T07:15:39;18.20;99.90
7498;DHT22;3790;48.806;9.140;2022-09-09T07:20:39;18.10;99.90
7498;DHT22;3790;48.806;9.140;2022-09-09T07:25:45;18.30;99.90
7498;DHT22;3790;48.806;9.140;2022-09-09T07:30:55;18.60;99.90
7498;DHT22;3790;48.806;9.140;2022-09-09T07:36:07;18.90;99.90
7498;DHT22;3790;48.806;9.140;2022-09-09T07:41:10;19.30;99.90
7498;DHT22;3790;48.806;9.140;2022-09-09T07:46:14;20.00;99.90
7498;DHT22;3790;48.806;9.140;2022-09-09T07:51:16;20.20;99.90
7498;DHT22;3790;48.806;9.140;2022-09-09T07:56:18;19.50;99.90
7498;DHT22;3790;48.806;9.140;2022-09-09T08:01:31;18.80;99.90
7498;DHT22;3790;48.806;9.140;2022-09-09T08:06:35;18.90;99.90
7498;DHT22;3790;48.806;9.140;2022-09-09T08:11:37;19.30;99.90
7498;DHT22;3790;48.806;9.140;2022-09-09T08:16:44;19.20;99.90
7498;DHT22;3790;48.806;9.140;2022-09-09T08:21:45;19.30;99.90
7498;DHT22;3790;48.806;9.140;2022-09-09T08:26:47;19.30;99.90
7498;DHT22;3790;48.806;9.140;2022-09-09T08:31:52;19.50;99.90
7498;DHT22;3790;48.806;9.140;2022-09-09T08:36:54;20.00;99.90
7498;DHT22;3790;48.806;9.140;2022-09-09T08:47:27;20.10;99.90
7498;DHT22;3790;48.806;9.140;2022-09-09T08:52:45;20.20;99.90
7498;DHT22;3790;48.806;9.140;2022-09-09T08:57:52;20.10;99.90
7498;DHT22;3790;48.806;9.140;2022-09-09T09:03:27;20.50;99.90
7498;DHT22;3790;48.806;9.140;2022-09-09T09:13:35;20.60;99.90
7498;DHT22;3790;48.806;9.140;2022-09-09T09:18:41;21.10;99.90
7498;DHT22;3790;48.806;9.140;2022-09-09T09:23:48;20.60;99.90
7498;DHT22;3790;48.806;9.140;2022-09-09T09:28:54;18.60;99.90
7498;DHT22;3790;48.806;9.140;2022-09-09T09:33:56;17.70;99.90
7498;DHT22;3790;48.806;9.140;2022-09-09T09:39:01;17.50;99.90
7498;DHT22;3790;48.806;9.140;2022-09-09T09:44:03;18.00;99.90
7498;DHT22;3790;48.806;9.140;2022-09-09T09:49:05;18.20;99.90
7498;DHT22;3790;48.806;9.140;2022-09-09T09:54:13;18.70;99.90
7498;DHT22;3790;48.806;9.140;2022-09-09T09:59:32;19.10;99.90
7498;DHT22;3790;48.806;9.140;2022-09-09T10:04:34;19.70;99.90
7498;DHT22;3790;48.806;9.140;2022-09-09T10:09:34;20.00;99.90
7498;DHT22;3790;48.806;9.140;2022-09-09T10:19:46;20.40;99.90
7498;DHT22;3790;48.806;9.140;2022-09-09T10:25:26;20.50;99.90
7498;DHT22;3790;48.806;9.140;2022-09-09T10:30:43;20.90;99.90
7498;DHT22;3790;48.806;9.140;2022-09-09T10:36:02;21.30;99.90
7498;DHT22;3790;48.806;9.140;2022-09-09T10:41:30;21.40;99.90
7498;DHT22;3790;48.806;9.140;2022-09-09T10:51:51;22.40;99.90
7498;DHT22;3790;48.806;9.140;2022-09-09T10:57:13;22.50;99.90
7498;DHT22;3790;48.806;9.140;2022-09-09T11:02:26;22.60;99.90
7498;DHT22;3790;48.806;9.140;2022-09-09T11:07:36;23.40;99.90
7498;DHT22;3790;48.806;9.140;2022-09-09T11:12:39;22.30;99.90
7498;DHT22;3790;48.806;9.140;2022-09-09T11:17:55;20.00;99.90
7498;DHT22;3790;48.806;9.140;2022-09-09T11:23:04;19.40;99.90
7498;DHT22;3790;48.806;9.140;2022-09-09T11:28:39;19.40;99.90
7498;DHT22;3790;48.806;9.140;2022-09-09T11:44:31;19.20;99.90
7498;DHT22;3790;48.806;9.140;2022-09-09T11:54:47;19.10;99.90
7498;DHT22;3790;48.806;9.140;2022-09-09T11:59:52;19.40;99.90
7498;DHT22;3790;48.806;9.140;2022-09-09T12:05:06;19.30;99.90
7498;DHT22;3790;48.806;9.140;2022-09-09T12:15:27;21.30;99.90
7498;DHT22;3790;48.806;9.140;2022-09-09T12:20:39;22.20;99.90
7498;DHT22;3790;48.806;9.140;2022-09-09T12:31:17;28.30;99.90
7498;DHT22;3790;48.806;9.140;2022-09-09T12:36:30;26.70;97.80
7498;DHT22;3790;48.806;9.140;2022-09-09T12:41:31;24.70;99.90
7498;DHT22;3790;48.806;9.140;2022-09-09T12:46:45;23.50;99.90
7498;DHT22;3790;48.806;9.140;2022-09-09T12:51:46;22.90;99.90
7498;DHT22;3790;48.806;9.140;2022-09-09T12:56:47;22.30;99.90
7498;DHT22;3790;48.806;9.140;2022-09-09T13:01:56;24.70;99.90
7498;DHT22;3790;48.806;9.140;2022-09-09T13:07:07;26.40;99.90
7498;DHT22;3790;48.806;9.140;2022-09-09T13:12:20;27.10;98.70
7498;DHT22;3790;48.806;9.140;2022-09-09T13:17:27;27.30;98.20
7498;DHT22;3790;48.806;9.140;2022-09-09T13:22:37;25.30;99.90
7498;DHT22;3790;48.806;9.140;2022-09-09T13:27:40;26.60;99.50
7498;DHT22;3790;48.806;9.140;2022-09-09T13:32:42;27.60;97.50
7498;DHT22;3790;48.806;9.140;2022-09-09T13:37:42;30.40;95.20
7498;DHT22;3790;48.806;9.140;2022-09-09T13:42:44;31.80;92.60
7498;DHT22;3790;48.806;9.140;2022-09-09T13:47:45;32.60;90.70
7498;DHT22;3790;48.806;9.140;2022-09-09T13:52:47;29.60;91.00
7498;DHT22;3790;48.806;9.140;2022-09-09T13:57:57;25.10;95.60
7498;DHT22;3790;48.806;9.140;2022-09-09T14:02:59;26.20;99.20
7498;DHT22;3790;48.806;9.140;2022-09-09T14:08:06;26.40;94.90
7498;DHT22;3790;48.806;9.140;2022-09-09T14:13:07;26.50;95.20
7498;DHT22;3790;48.806;9.140;2022-09-09T14:18:11;30.70;89.10
7498;DHT22;3790;48.806;9.140;2022-09-09T14:23:12;29.80;87.30
7498;DHT22;3790;48.806;9.140;2022-09-09T14:28:13;30.80;83.80
7498;DHT22;3790;48.806;9.140;2022-09-09T14:33:15;29.60;83.50
7498;DHT22;3790;48.806;9.140;2022-09-09T14:38:17;32.30;76.30
7498;DHT22;3790;48.806;9.140;2022-09-09T14:43:18;29.80;78.60
7498;DHT22;3790;48.806;9.140;2022-09-09T14:48:18;26.10;87.30
7498;DHT22;3790;48.806;9.140;2022-09-09T14:53:19;28.50;85.20
7498;DHT22;3790;48.806;9.140;2022-09-09T14:58:19;28.80;81.60
7498;DHT22;3790;48.806;9.140;2022-09-09T15:03:20;27.30;85.20
7498;DHT22;3790;48.806;9.140;2022-09-09T15:08:22;25.50;90.20
7498;DHT22;3790;48.806;9.140;2022-09-09T15:13:22;24.40;91.10
7498;DHT22;3790;48.806;9.140;2022-09-09T15:18:23;23.10;93.20
7498;DHT22;3790;48.806;9.140;2022-09-09T15:23:23;22.30;94.30
7498;DHT22;3790;48.806;9.140;2022-09-09T15:28:24;21.90;96.40
7498;DHT22;3790;48.806;9.140;2022-09-09T15:33:24;21.50;97.10
7498;DHT22;3790;48.806;9.140;2022-09-09T15:38:25;21.60;97.40
7498;DHT22;3790;48.806;9.140;2022-09-09T15:43:25;22.20;97.90
7498;DHT22;3790;48.806;9.140;2022-09-09T15:48:30;22.10;97.20
7498;DHT22;3790;48.806;9.140;2022-09-09T15:53:32;21.30;98.30
7498;DHT22;3790;48.806;9.140;2022-09-09T15:58:34;20.90;99.60
7498;DHT22;3790;48.806;9.140;2022-09-09T16:03:40;20.70;99.90
7498;DHT22;3790;48.806;9.140;2022-09-09T16:08:47;20.70;99.90
7498;DHT22;3790;48.806;9.140;2022-09-09T16:13:51;20.40;99.90
7498;DHT22;3790;48.806;9.140;2022-09-09T16:18:54;20.30;99.90
7498;DHT22;3790;48.806;9.140;2022-09-09T16:23:56;20.30;99.90
7498;DHT22;3790;48.806;9.140;2022-09-09T16:28:57;20.20;99.90
7498;DHT22;3790;48.806;9.140;2022-09-09T16:34:01;20.00;99.90
7498;DHT22;3790;48.806;9.140;2022-09-09T16:39:06;19.30;99.90
7498;DHT22;3790;48.806;9.140;2022-09-09T16:44:08;18.80;99.90
7498;DHT22;3790;48.806;9.140;2022-09-09T16:49:11;18.60;99.90
7498;DHT22;3790;48.806;9.140;2022-09-09T16:54:13;18.60;99.90
7498;DHT22;3790;48.806;9.140;2022-09-09T16:59:19;17.40;99.90
7498;DHT22;3790;48.806;9.140;2022-09-09T17:04:25;16.10;99.90
7498;DHT22;3790;48.806;9.140;2022-09-09T17:09:26;15.70;99.90
7498;DHT22;3790;48.806;9.140;2022-09-09T17:14:29;15.60;99.90
7498;DHT22;3790;48.806;9.140;2022-09-09T17:19:32;15.80;99.90
7498;DHT22;3790;48.806;9.140;2022-09-09T17:24:34;16.20;99.90
7498;DHT22;3790;48.806;9.140;2022-09-09T17:29:34;16.30;99.90
7498;DHT22;3790;48.806;9.140;2022-09-09T17:34:36;16.30;99.90
7498;DHT22;3790;48.806;9.140;2022-09-09T17:39:37;16.30;99.90
7498;DHT22;3790;48.806;9.140;2022-09-09T17:44:38;16.10;99.90
7498;DHT22;3790;48.806;9.140;2022-09-09T17:49:40;16.10;99.90
7498;DHT22;3790;48.806;9.140;2022-09-09T17:54:40;16.00;99.90
7498;DHT22;3790;48.806;9.140;2022-09-09T17:59:41;16.00;99.90
7498;DHT22;3790;48.806;9.140;2022-09-09T18:04:42;16.00;99.90
7498;DHT22;3790;48.806;9.140;2022-09-09T18:09:42;16.10;99.90
7498;DHT22;3790;48.806;9.140;2022-09-09T18:14:43;16.30;99.90
7498;DHT22;3790;48.806;9.140;2022-09-09T18:19:43;16.30;99.90
7498;DHT22;3790;48.806;9.140;2022-09-09T18:24:44;16.50;99.90
7498;DHT22;3790;48.806;9.140;2022-09-09T18:29:47;16.60;99.90
7498;DHT22;3790;48.806;9.140;2022-09-09T18:34:48;16.60;99.90
7498;DHT22;3790;48.806;9.140;2022-09-09T18:39:50;16.60;99.90
7498;DHT22;3790;48.806;9.140;2022-09-09T18:44:50;16.20;99.90
7498;DHT22;3790;48.806;9.140;2022-09-09T18:49:51;16.10;99.90
7498;DHT22;3790;48.806;9.140;2022-09-09T18:54:51;16.00;99.90
7498;DHT22;3790;48.806;9.140;2022-09-09T18:59:52;15.80;99.90
7498;DHT22;3790;48.806;9.140;2022-09-09T19:04:54;15.90;99.90
7498;DHT22;3790;48.806;9.140;2022-09-09T19:09:55;16.00;99.90
7498;DHT22;3790;48.806;9.140;2022-09-09T19:14:56;16.10;99.90
7498;DHT22;3790;48.806;9.140;2022-09-09T19:19:56;16.10;99.90
7498;DHT22;3790;48.806;9.140;2022-09-09T19:24:57;16.10;99.90
7498;DHT22;3790;48.806;9.140;2022-09-09T19:29:59;16.10;99.90
7498;DHT22;3790;48.806;9.140;2022-09-09T19:34:59;16.10;99.90
7498;DHT22;3790;48.806;9.140;2022-09-09T19:40:01;16.00;99.90
7498;DHT22;3790;48.806;9.140;2022-09-09T19:45:04;16.10;99.90
7498;DHT22;3790;48.806;9.140;2022-09-09T19:50:06;16.10;99.90
7498;DHT22;3790;48.806;9.140;2022-09-09T19:55:07;16.00;99.90
7498;DHT22;3790;48.806;9.140;2022-09-09T20:00:08;16.00;99.90
7498;DHT22;3790;48.806;9.140;2022-09-09T20:05:09;15.80;99.90
7498;DHT22;3790;48.806;9.140;2022-09-09T20:10:09;15.80;99.90
7498;DHT22;3790;48.806;9.140;2022-09-09T20:15:10;15.80;99.90
7498;DHT22;3790;48.806;9.140;2022-09-09T20:20:12;15.70;99.90
7498;DHT22;3790;48.806;9.140;2022-09-09T20:25:12;15.80;99.90
7498;DHT22;3790;48.806;9.140;2022-09-09T20:30:14;15.80;99.90
7498;DHT22;3790;48.806;9.140;2022-09-09T20:35:15;15.80;99.90
7498;DHT22;3790;48.806;9.140;2022-09-09T20:40:15;15.80;99.90
7498;DHT22;3790;48.806;9.140;2022-09-09T20:45:16;15.80;99.90
7498;DHT22;3790;48.806;9.140;2022-09-09T20:50:16;15.70;99.90
7498;DHT22;3790;48.806;9.140;2022-09-09T20:55:17;15.70;99.90
7498;DHT22;3790;48.806;9.140;2022-09-09T21:00:18;15.80;99.90
7498;DHT22;3790;48.806;9.140;2022-09-09T21:05:18;15.70;99.90
7498;DHT22;3790;48.806;9.140;2022-09-09T21:10:19;15.70;99.90
7498;DHT22;3790;48.806;9.140;2022-09-09T21:15:19;15.70;99.90
7498;DHT22;3790;48.806;9.140;2022-09-09T21:20:20;15.60;99.90
7498;DHT22;3790;48.806;9.140;2022-09-09T21:25:20;15.60;99.90
7498;DHT22;3790;48.806;9.140;2022-09-09T21:30:21;15.40;99.90
7498;DHT22;3790;48.806;9.140;2022-09-09T21:35:22;15.30;99.90
7498;DHT22;3790;48.806;9.140;2022-09-09T21:40:22;15.20;99.90
7498;DHT22;3790;48.806;9.140;2022-09-09T21:45:23;15.20;99.90
7498;DHT22;3790;48.806;9.140;2022-09-09T21:50:25;15.20;99.90
7498;DHT22;3790;48.806;9.140;2022-09-09T21:55:25;15.20;99.90
7498;DHT22;3790;48.806;9.140;2022-09-09T22:00:25;15.30;99.90
7498;DHT22;3790;48.806;9.140;2022-09-09T22:05:26;15.30;99.90
7498;DHT22;3790;48.806;9.140;2022-09-09T22:10:27;15.40;99.90
7498;DHT22;3790;48.806;9.140;2022-09-09T22:15:27;15.50;99.90
7498;DHT22;3790;48.806;9.140;2022-09-09T22:20:31;15.50;99.90
7498;DHT22;3790;48.806;9.140;2022-09-09T22:25:35;15.60;99.90
7498;DHT22;3790;48.806;9.140;2022-09-09T22:30:35;15.60;99.90
7498;DHT22;3790;48.806;9.140;2022-09-09T22:35:41;15.70;99.90
7498;DHT22;3790;48.806;9.140;2022-09-09T22:40:42;15.70;99.90
7498;DHT22;3790;48.806;9.140;2022-09-09T22:45:43;15.70;99.90
7498;DHT22;3790;48.806;9.140;2022-09-09T22:50:45;15.70;99.90
7498;DHT22;3790;48.806;9.140;2022-09-09T22:55:57;15.80;99.90
7498;DHT22;3790;48.806;9.140;2022-09-09T23:00:59;15.90;99.90
7498;DHT22;3790;48.806;9.140;2022-09-09T23:06:01;15.90;99.90
7498;DHT22;3790;48.806;9.140;2022-09-09T23:11:05;15.20;99.90
7498;DHT22;3790;48.806;9.140;2022-09-09T23:16:13;14.30;99.90
7498;DHT22;3790;48.806;9.140;2022-09-09T23:21:14;13.90;99.90
7498;DHT22;3790;48.806;9.140;2022-09-09T23:26:15;13.70;99.90
7498;DHT22;3790;48.806;9.140;2022-09-09T23:31:20;13.50;99.90
7498;DHT22;3790;48.806;9.140;2022-09-09T23:36:23;13.40;99.90
7498;DHT22;3790;48.806;9.140;2022-09-09T23:41:24;13.40;99.90
7498;DHT22;3790;48.806;9.140;2022-09-09T23:46:26;13.30;99.90
7498;DHT22;3790;48.806;9.140;2022-09-09T23:51:29;13.30;99.90
7498;DHT22;3790;48.806;9.140;2022-09-09T23:56:36;13.60;99.90
